Terminal Aerodrome Forecast
Issued by NWS

Home | Current Version | Previous Version | Text Only | Print | Product List | Glossary On
Versions: 1 2 3 4 5 6 7 8 9 10 11 12 13 14 15
511
FTUS41 KILN 230538
TAFLUK
TAF
KLUK 230538Z 2306/2406 19011KT P6SM VCSH BKN018 OVC022
      TEMPO 2306/2309 BKN010 OVC018
     FM231300 21012G18KT 5SM SHRA BR OVC018
      TEMPO 2318/2322 3SM +SHRA OVC012
     FM240000 25008KT P6SM OVC020
      TEMPO 2400/2402 4SM -SHRA BR OVC010
     FM240500 30004KT P6SM SCT015=

USA.gov is the U.S. government's official web portal to all federal, state and local government web resources and services.